Time;durP1;ratioP1;P1;durP2;ratioP2;P2;SDS_P1;SDS_P2;PMS_P1;PMS_P2;Temp;Humidity;BMP_temperature;BMP_pressure;BME280_temperature;BME280_humidity;BME280_pressure;Samples;Min_cycle;Max_cycle;Signal;HPM_P1;HPM_P2
2023/03/20 00:02:11;;;;;;;0.77;0.77;;;;;;;;;;5031528;28;20459;-68
2023/03/20 00:04:37;;;;;;;0.70;0.70;;;;;;;;;;5027003;28;20532;-67
2023/03/20 00:07:03;;;;;;;0.60;0.60;;;;;;;;;;5027075;28;20462;-68
2023/03/20 00:09:28;;;;;;;0.60;0.60;;;;;;;;;;5027596;28;20457;-67
2023/03/20 00:11:55;;;;;;;0.80;0.80;;;;;;;;;;5027431;28;20471;-68
2023/03/20 00:14:23;;;;;;;0.80;0.80;;;;;;;;;;5026808;28;20436;-68
2023/03/20 00:16:50;;;;;;;0.70;0.70;;;;;;;;;;5028001;28;20572;-68
2023/03/20 00:19:18;;;;;;;0.90;0.90;;;;;;;;;;5027514;28;20530;-67
2023/03/20 00:21:46;;;;;;;1.60;1.00;;;;;;;;;;5027295;28;20439;-68
2023/03/20 00:24:12;;;;;;;0.67;0.67;;;;;;;;;;5039537;28;20953;-68
2023/03/20 00:26:38;;;;;;;1.37;0.70;;;;;;;;;;5026987;28;20473;-68
2023/03/20 00:29:05;;;;;;;0.93;0.77;;;;;;;;;;5026722;28;20442;-67
2023/03/20 00:31:36;;;;;;;0.90;0.80;;;;;;;;;;5027867;28;20503;-68
2023/03/20 00:34:05;;;;;;;0.70;0.70;;;;;;;;;;5026749;28;20515;-68
2023/03/20 00:36:31;;;;;;;0.80;0.80;;;;;;;;;;5026555;28;20526;-67
2023/03/20 00:38:57;;;;;;;0.80;0.60;;;;;;;;;;5027149;28;20447;-68
2023/03/20 00:41:36;;;;;;;0.87;0.87;;;;;;;;;;5027452;28;20932;-68
2023/03/20 00:44:04;;;;;;;1.07;0.80;;;;;;;;;;5025998;28;20442;-67
2023/03/20 00:46:35;;;;;;;0.73;0.73;;;;;;;;;;5026559;28;20446;-67
2023/03/20 00:49:02;;;;;;;0.93;0.93;;;;;;;;;;5027353;28;20474;-68
2023/03/20 00:51:28;;;;;;;0.80;0.80;;;;;;;;;;5008406;28;20477;-68
2023/03/20 00:53:54;;;;;;;1.03;1.00;;;;;;;;;;5027428;28;20464;-67
2023/03/20 00:56:30;;;;;;;0.80;0.80;;;;;;;;;;5027358;28;20477;-68
2023/03/20 00:58:56;;;;;;;0.57;0.57;;;;;;;;;;5026980;28;20496;-68
2023/03/20 01:01:22;;;;;;;0.60;0.60;;;;;;;;;;5025416;28;20547;-68
2023/03/20 01:03:48;;;;;;;1.80;0.73;;;;;;;;;;5026729;28;20550;-67
2023/03/20 01:06:14;;;;;;;0.90;0.90;;;;;;;;;;5026647;28;20865;-67
2023/03/20 01:08:40;;;;;;;4.00;0.83;;;;;;;;;;5026763;28;20443;-68
2023/03/20 01:11:06;;;;;;;1.20;1.13;;;;;;;;;;5026349;28;20424;-68
2023/03/20 01:13:32;;;;;;;0.57;0.57;;;;;;;;;;5026905;28;20514;-68
2023/03/20 01:15:59;;;;;;;0.70;0.70;;;;;;;;;;5026473;28;21386;-68
2023/03/20 01:18:26;;;;;;;0.80;0.80;;;;;;;;;;5026541;28;20981;-68
2023/03/20 01:20:52;;;;;;;0.70;0.70;;;;;;;;;;5026011;28;20439;-67
2023/03/20 01:23:19;;;;;;;0.60;0.60;;;;;;;;;;5026953;28;20434;-67
2023/03/20 01:25:45;;;;;;;0.47;0.47;;;;;;;;;;5025937;28;20438;-68
2023/03/20 01:28:19;;;;;;;0.50;0.50;;;;;;;;;;5026876;28;20508;-68
2023/03/20 01:30:45;;;;;;;0.80;0.80;;;;;;;;;;5026360;28;20435;-68
2023/03/20 01:33:19;;;;;;;0.53;0.53;;;;;;;;;;5025686;28;20423;-68
2023/03/20 01:35:46;;;;;;;0.73;0.73;;;;;;;;;;5025575;28;21028;-68
2023/03/20 01:38:23;;;;;;;0.73;0.73;;;;;;;;;;5026704;28;20533;-68
2023/03/20 01:41:01;;;;;;;1.20;1.20;;;;;;;;;;5026873;28;20919;-68
2023/03/20 01:43:27;;;;;;;0.73;0.73;;;;;;;;;;5026478;28;20454;-68
2023/03/20 01:46:00;;;;;;;0.70;0.70;;;;;;;;;;5025920;28;20435;-68
2023/03/20 01:48:32;;;;;;;0.80;0.80;;;;;;;;;;5026236;28;20532;-67
2023/03/20 01:50:58;;;;;;;0.47;0.47;;;;;;;;;;5026533;28;20427;-68
2023/03/20 01:53:25;;;;;;;0.80;0.80;;;;;;;;;;5026913;28;20425;-68
2023/03/20 01:55:53;;;;;;;0.60;0.60;;;;;;;;;;5025627;28;20467;-68
2023/03/20 01:58:22;;;;;;;0.70;0.60;;;;;;;;;;5029229;28;20435;-68
2023/03/20 02:00:48;;;;;;;1.10;1.10;;;;;;;;;;5028782;28;20790;-68
2023/03/20 02:03:15;;;;;;;0.87;0.87;;;;;;;;;;5030180;28;20493;-68
2023/03/20 02:05:41;;;;;;;0.90;0.90;;;;;;;;;;5028671;28;20438;-68
2023/03/20 02:08:10;;;;;;;0.70;0.70;;;;;;;;;;5030072;28;20437;-68
2023/03/20 02:10:36;;;;;;;0.70;0.70;;;;;;;;;;5028534;28;20961;-68
2023/03/20 02:13:03;;;;;;;0.70;0.70;;;;;;;;;;5029320;28;20932;-68
2023/03/20 02:15:30;;;;;;;0.87;0.87;;;;;;;;;;5029725;28;20931;-68
2023/03/20 02:17:56;;;;;;;0.70;0.70;;;;;;;;;;5029805;28;20427;-68
2023/03/20 02:20:36;;;;;;;0.73;0.73;;;;;;;;;;5029460;28;21012;-67
2023/03/20 02:23:13;;;;;;;0.90;0.90;;;;;;;;;;5042751;28;20462;-67
2023/03/20 02:25:42;;;;;;;1.40;0.80;;;;;;;;;;5028883;28;20971;-67
2023/03/20 02:28:26;;;;;;;0.73;0.70;;;;;;;;;;5029619;28;20530;-68
2023/03/20 02:30:55;;;;;;;1.10;1.10;;;;;;;;;;5029220;28;21078;-68
2023/03/20 02:33:37;;;;;;;0.83;0.83;;;;;;;;;;5030082;28;20444;-68
2023/03/20 02:36:22;;;;;;;0.87;0.87;;;;;;;;;;5028516;28;20515;-68
2023/03/20 02:38:57;;;;;;;1.00;1.00;;;;;;;;;;5029336;28;20576;-68
2023/03/20 02:41:43;;;;;;;1.73;1.63;;;;;;;;;;5029104;28;20930;-67
2023/03/20 02:44:14;;;;;;;1.00;1.00;;;;;;;;;;5033614;28;20451;-68
2023/03/20 02:46:49;;;;;;;1.20;1.20;;;;;;;;;;5031342;28;20443;-67
2023/03/20 02:49:15;;;;;;;1.30;1.30;;;;;;;;;;5027249;28;20480;-68
2023/03/20 02:51:47;;;;;;;5.03;0.83;;;;;;;;;;5026239;28;20465;-68
2023/03/20 02:54:26;;;;;;;1.20;1.20;;;;;;;;;;5026414;28;20474;-68
2023/03/20 02:57:22;;;;;;;0.90;0.90;;;;;;;;;;5027190;28;22116;-68
2023/03/20 02:59:50;;;;;;;0.93;0.93;;;;;;;;;;5019319;28;20439;-67
2023/03/20 03:02:22;;;;;;;1.23;1.23;;;;;;;;;;5026639;28;22021;-67
2023/03/20 03:04:52;;;;;;;1.13;1.13;;;;;;;;;;5026348;28;20439;-68
2023/03/20 03:07:20;;;;;;;1.23;1.23;;;;;;;;;;5042012;28;20432;-68
2023/03/20 03:09:50;;;;;;;1.30;1.30;;;;;;;;;;5025225;28;20475;-68
2023/03/20 03:12:21;;;;;;;1.33;1.33;;;;;;;;;;5026174;28;20501;-68
2023/03/20 03:14:48;;;;;;;1.30;1.30;;;;;;;;;;5026628;28;20435;-68
2023/03/20 03:17:15;;;;;;;1.40;1.40;;;;;;;;;;5026443;28;20514;-68
2023/03/20 03:19:44;;;;;;;1.67;1.60;;;;;;;;;;5026369;28;20501;-67
2023/03/20 03:22:11;;;;;;;2.80;2.00;;;;;;;;;;5026926;28;20435;-68
2023/03/20 03:24:38;;;;;;;1.30;1.30;;;;;;;;;;5028577;28;20411;-68
2023/03/20 03:27:10;;;;;;;1.90;1.90;;;;;;;;;;5028415;28;20439;-68
2023/03/20 03:29:38;;;;;;;1.77;1.67;;;;;;;;;;5028378;28;20426;-67
2023/03/20 03:32:06;;;;;;;1.43;1.43;;;;;;;;;;5028170;28;20449;-68
2023/03/20 03:34:32;;;;;;;2.70;1.73;;;;;;;;;;5027824;28;20484;-68
2023/03/20 03:37:17;;;;;;;1.90;1.90;;;;;;;;;;5027503;28;21014;-67
2023/03/20 03:39:52;;;;;;;1.80;1.80;;;;;;;;;;5027760;28;20458;-68
2023/03/20 03:42:32;;;;;;;1.83;1.73;;;;;;;;;;5028722;28;21146;-68
2023/03/20 03:44:58;;;;;;;2.30;2.17;;;;;;;;;;5027622;28;20517;-67
2023/03/20 03:47:32;;;;;;;1.87;1.87;;;;;;;;;;5028065;28;20565;-68
2023/03/20 03:50:02;;;;;;;1.57;1.57;;;;;;;;;;5027750;28;20545;-67
2023/03/20 03:52:28;;;;;;;2.13;2.07;;;;;;;;;;5027887;28;20923;-68
2023/03/20 03:54:54;;;;;;;1.50;1.50;;;;;;;;;;5027459;28;20440;-67
2023/03/20 03:57:24;;;;;;;1.40;1.40;;;;;;;;;;5028299;28;20482;-68
2023/03/20 03:59:51;;;;;;;3.17;2.10;;;;;;;;;;5028176;28;20185;-68
2023/03/20 04:02:18;;;;;;;2.00;2.00;;;;;;;;;;5027722;28;20452;-67
2023/03/20 04:04:46;;;;;;;1.77;1.77;;;;;;;;;;5026074;28;20431;-68
2023/03/20 04:07:13;;;;;;;2.73;2.17;;;;;;;;;;5027998;28;20435;-68
2023/03/20 04:09:39;;;;;;;1.97;1.97;;;;;;;;;;5027419;28;20831;-68
2023/03/20 04:12:05;;;;;;;2.97;1.70;;;;;;;;;;5027707;28;20483;-68
2023/03/20 04:14:31;;;;;;;2.30;2.20;;;;;;;;;;5027442;28;20437;-67
2023/03/20 04:16:57;;;;;;;1.80;1.70;;;;;;;;;;5027777;28;20486;-67
2023/03/20 04:19:23;;;;;;;1.40;1.40;;;;;;;;;;5028602;28;20930;-68
2023/03/20 04:21:49;;;;;;;1.90;1.80;;;;;;;;;;5026510;28;21792;-68
2023/03/20 04:24:15;;;;;;;1.97;1.97;;;;;;;;;;5025890;28;20427;-68
2023/03/20 04:26:41;;;;;;;3.57;2.10;;;;;;;;;;5026881;28;20439;-68
2023/03/20 04:29:07;;;;;;;2.43;2.33;;;;;;;;;;5027586;28;20516;-67
2023/03/20 04:31:33;;;;;;;2.50;2.50;;;;;;;;;;5027351;28;20521;-67
2023/03/20 04:33:59;;;;;;;2.07;2.07;;;;;;;;;;5027566;28;20526;-68
2023/03/20 04:36:25;;;;;;;2.10;2.07;;;;;;;;;;5026861;28;20491;-68
2023/03/20 04:38:51;;;;;;;1.83;1.73;;;;;;;;;;5026282;28;20436;-68
2023/03/20 04:41:19;;;;;;;2.40;2.30;;;;;;;;;;5027264;28;20476;-67
2023/03/20 04:43:45;;;;;;;2.97;2.87;;;;;;;;;;5027405;28;20462;-67
2023/03/20 04:46:11;;;;;;;2.07;2.07;;;;;;;;;;5027061;28;20470;-68
2023/03/20 04:48:37;;;;;;;2.50;2.40;;;;;;;;;;5028690;28;20430;-68
2023/03/20 04:51:03;;;;;;;2.50;2.40;;;;;;;;;;5026359;28;20485;-68
2023/03/20 04:53:29;;;;;;;2.37;2.27;;;;;;;;;;5025830;28;20445;-68
2023/03/20 04:55:55;;;;;;;3.40;2.67;;;;;;;;;;5026644;28;20471;-68
2023/03/20 04:58:22;;;;;;;1.97;1.87;;;;;;;;;;5026606;28;20534;-68
2023/03/20 05:00:48;;;;;;;2.30;2.30;;;;;;;;;;5026340;28;20435;-68
2023/03/20 05:03:14;;;;;;;2.50;2.30;;;;;;;;;;5026693;28;20449;-68
2023/03/20 05:05:40;;;;;;;3.47;3.37;;;;;;;;;;5025771;28;20427;-68
2023/03/20 05:08:06;;;;;;;2.13;2.03;;;;;;;;;;5025821;28;20442;-68
2023/03/20 05:10:32;;;;;;;2.57;2.37;;;;;;;;;;5026808;28;20427;-68
2023/03/20 05:12:58;;;;;;;3.30;3.00;;;;;;;;;;5026921;28;22057;-68
2023/03/20 05:15:24;;;;;;;2.77;2.67;;;;;;;;;;5025379;28;20459;-68
2023/03/20 05:17:51;;;;;;;2.70;2.60;;;;;;;;;;5027433;28;20481;-67
2023/03/20 05:20:17;;;;;;;2.57;2.57;;;;;;;;;;5025354;28;20458;-67
2023/03/20 05:22:43;;;;;;;5.80;3.03;;;;;;;;;;5025789;28;20973;-67
2023/03/20 05:25:09;;;;;;;4.57;3.00;;;;;;;;;;5025386;28;20435;-68
2023/03/20 05:27:35;;;;;;;1.87;1.77;;;;;;;;;;5026755;28;20535;-68
2023/03/20 05:30:01;;;;;;;2.13;2.13;;;;;;;;;;5026662;28;20510;-68
2023/03/20 05:32:27;;;;;;;5.97;2.83;;;;;;;;;;5026967;28;20443;-68
2023/03/20 05:34:53;;;;;;;3.07;2.50;;;;;;;;;;5029409;28;20423;-68
2023/03/20 05:37:19;;;;;;;3.70;2.63;;;;;;;;;;5035505;28;21143;-68
2023/03/20 05:39:45;;;;;;;2.40;2.37;;;;;;;;;;5029389;28;20836;-68
2023/03/20 05:42:11;;;;;;;2.00;1.90;;;;;;;;;;5029747;28;20457;-68
2023/03/20 05:44:37;;;;;;;6.03;2.20;;;;;;;;;;5030998;28;20423;-69
2023/03/20 05:47:03;;;;;;;2.20;2.20;;;;;;;;;;5028955;28;20439;-68
2023/03/20 05:49:29;;;;;;;2.60;2.40;;;;;;;;;;5028400;28;20442;-68
2023/03/20 05:51:55;;;;;;;5.07;2.60;;;;;;;;;;5029982;28;20439;-68
2023/03/20 05:54:21;;;;;;;2.00;2.00;;;;;;;;;;5033487;28;20974;-68
2023/03/20 05:56:47;;;;;;;2.50;2.50;;;;;;;;;;5033785;28;20489;-68
2023/03/20 05:59:13;;;;;;;2.47;2.37;;;;;;;;;;5028987;28;20438;-68
2023/03/20 06:01:39;;;;;;;2.10;2.10;;;;;;;;;;5029672;28;22354;-68
2023/03/20 06:04:07;;;;;;;2.57;2.50;;;;;;;;;;5028806;28;20439;-68
2023/03/20 06:06:36;;;;;;;7.63;2.30;;;;;;;;;;5028781;28;20587;-68
2023/03/20 06:09:03;;;;;;;5.27;2.60;;;;;;;;;;5030185;28;20431;-68
2023/03/20 06:11:28;;;;;;;3.23;2.40;;;;;;;;;;5029707;28;20446;-68
2023/03/20 06:13:56;;;;;;;6.07;2.60;;;;;;;;;;5028709;28;20494;-68
2023/03/20 06:16:23;;;;;;;2.33;2.23;;;;;;;;;;5028867;28;20523;-69
2023/03/20 06:18:49;;;;;;;2.20;2.20;;;;;;;;;;5029956;28;20473;-68
2023/03/20 06:21:16;;;;;;;3.27;3.07;;;;;;;;;;5028900;28;20435;-68
2023/03/20 06:23:42;;;;;;;4.33;2.60;;;;;;;;;;5032509;28;20510;-68
2023/03/20 06:26:08;;;;;;;2.53;2.43;;;;;;;;;;5028991;28;20462;-68
2023/03/20 06:28:34;;;;;;;3.80;2.83;;;;;;;;;;5029286;28;20427;-68
2023/03/20 06:31:00;;;;;;;2.60;2.50;;;;;;;;;;5030876;28;20450;-69
2023/03/20 06:33:26;;;;;;;2.93;2.77;;;;;;;;;;5033930;28;20501;-68
2023/03/20 06:35:52;;;;;;;2.57;2.37;;;;;;;;;;5028031;28;20443;-69
2023/03/20 06:38:18;;;;;;;2.30;2.30;;;;;;;;;;5030473;28;20446;-68
2023/03/20 06:40:44;;;;;;;2.60;2.50;;;;;;;;;;5027999;28;20530;-68
2023/03/20 06:43:11;;;;;;;2.07;2.07;;;;;;;;;;5029721;28;20443;-69
2023/03/20 06:45:37;;;;;;;2.60;2.50;;;;;;;;;;5028558;28;20430;-68
2023/03/20 06:48:10;;;;;;;4.40;2.47;;;;;;;;;;5029371;28;20891;-68
2023/03/20 06:50:36;;;;;;;2.93;2.47;;;;;;;;;;5027603;28;20447;-68
2023/03/20 06:53:02;;;;;;;2.60;2.43;;;;;;;;;;5025748;28;20438;-68
2023/03/20 06:55:28;;;;;;;2.67;2.67;;;;;;;;;;5027539;28;20949;-68
2023/03/20 06:57:54;;;;;;;2.70;2.47;;;;;;;;;;5028940;28;21058;-67
2023/03/20 07:00:21;;;;;;;2.77;2.77;;;;;;;;;;5026932;28;20440;-68
2023/03/20 07:02:47;;;;;;;2.50;2.37;;;;;;;;;;5026152;28;20436;-68
2023/03/20 07:05:15;;;;;;;3.00;2.90;;;;;;;;;;5027516;28;20431;-68
2023/03/20 07:07:41;;;;;;;2.40;2.40;;;;;;;;;;5028463;28;20435;-69
2023/03/20 07:10:08;;;;;;;2.43;2.33;;;;;;;;;;5031646;28;20449;-67
2023/03/20 07:12:34;;;;;;;3.43;3.33;;;;;;;;;;5029655;28;20543;-68
2023/03/20 07:15:00;;;;;;;2.90;2.80;;;;;;;;;;5027622;28;20435;-68
2023/03/20 07:17:26;;;;;;;3.10;3.10;;;;;;;;;;5027716;28;20497;-68
2023/03/20 07:19:52;;;;;;;3.30;3.20;;;;;;;;;;5026972;28;20473;-68
2023/03/20 07:22:23;;;;;;;3.37;3.07;;;;;;;;;;5026843;28;21805;-68
2023/03/20 07:24:49;;;;;;;3.00;2.90;;;;;;;;;;5031866;28;21650;-68
2023/03/20 07:27:15;;;;;;;3.07;2.97;;;;;;;;;;5025751;28;20436;-69
2023/03/20 07:29:41;;;;;;;2.67;2.57;;;;;;;;;;5034859;28;20443;-68
2023/03/20 07:32:07;;;;;;;2.40;2.30;;;;;;;;;;5034998;28;20462;-68
2023/03/20 07:34:33;;;;;;;3.33;3.23;;;;;;;;;;5024663;28;21392;-69
2023/03/20 07:36:59;;;;;;;6.13;4.40;;;;;;;;;;5027116;28;20482;-68
2023/03/20 07:39:25;;;;;;;3.50;3.30;;;;;;;;;;5028319;28;20431;-68
2023/03/20 07:41:51;;;;;;;2.97;2.97;;;;;;;;;;5030405;28;20745;-68
2023/03/20 07:44:18;;;;;;;3.77;3.53;;;;;;;;;;5025000;28;20438;-68
2023/03/20 07:46:45;;;;;;;3.80;3.33;;;;;;;;;;5027238;28;20522;-68
2023/03/20 07:49:12;;;;;;;3.70;3.60;;;;;;;;;;5033742;28;20917;-68
2023/03/20 07:51:38;;;;;;;3.20;3.10;;;;;;;;;;5035148;28;20526;-67
2023/03/20 07:54:05;;;;;;;2.77;2.67;;;;;;;;;;5034226;28;20510;-68
2023/03/20 07:56:31;;;;;;;2.97;2.90;;;;;;;;;;5035340;28;20819;-68
2023/03/20 07:58:57;;;;;;;3.30;3.10;;;;;;;;;;5034693;28;20481;-68
2023/03/20 08:01:23;;;;;;;3.60;3.50;;;;;;;;;;5034475;28;20430;-68
2023/03/20 08:03:49;;;;;;;3.13;3.10;;;;;;;;;;5035280;28;20484;-68
2023/03/20 08:06:16;;;;;;;3.77;3.47;;;;;;;;;;5033298;28;20427;-67
2023/03/20 08:08:43;;;;;;;3.83;3.17;;;;;;;;;;5035699;28;20430;-68
2023/03/20 08:11:09;;;;;;;3.00;2.70;;;;;;;;;;5034571;28;21237;-68
2023/03/20 08:13:35;;;;;;;5.13;3.30;;;;;;;;;;5035116;28;20440;-71
2023/03/20 08:16:01;;;;;;;7.50;3.03;;;;;;;;;;5035359;28;20463;-68
2023/03/20 08:18:27;;;;;;;3.90;3.57;;;;;;;;;;5036337;28;20785;-67
2023/03/20 08:20:53;;;;;;;4.83;4.27;;;;;;;;;;5033540;28;20435;-66
2023/03/20 08:23:19;;;;;;;3.03;2.93;;;;;;;;;;5036312;28;20496;-66
2023/03/20 08:25:48;;;;;;;2.93;2.73;;;;;;;;;;5035739;28;20454;-65
2023/03/20 08:28:14;;;;;;;5.73;3.00;;;;;;;;;;5034942;28;20446;-67
2023/03/20 08:30:40;;;;;;;2.80;2.70;;;;;;;;;;5035110;28;20504;-67
2023/03/20 08:33:06;;;;;;;2.20;2.20;;;;;;;;;;5035706;28;20445;-67
2023/03/20 08:35:32;;;;;;;2.50;2.30;;;;;;;;;;5034908;28;20410;-71
2023/03/20 08:37:58;;;;;;;2.27;2.27;;;;;;;;;;5035114;28;20482;-70
2023/03/20 08:40:24;;;;;;;2.47;2.47;;;;;;;;;;5035048;28;20434;-70
2023/03/20 08:42:50;;;;;;;2.80;2.07;;;;;;;;;;5034801;28;20443;-72
2023/03/20 08:45:16;;;;;;;2.03;1.87;;;;;;;;;;5035245;28;20431;-71
2023/03/20 08:47:42;;;;;;;2.17;2.07;;;;;;;;;;5034619;28;20469;-69
2023/03/20 08:50:09;;;;;;;1.90;1.80;;;;;;;;;;5034518;28;20779;-69
2023/03/20 08:52:35;;;;;;;2.00;1.90;;;;;;;;;;5034760;28;21116;-67
2023/03/20 08:55:01;;;;;;;3.97;1.67;;;;;;;;;;5034042;28;22188;-66
2023/03/20 08:57:27;;;;;;;1.73;1.73;;;;;;;;;;5035755;28;20478;-66
2023/03/20 08:59:53;;;;;;;2.20;2.20;;;;;;;;;;5033493;28;20965;-66
2023/03/20 09:02:19;;;;;;;2.07;1.97;;;;;;;;;;5033866;28;20485;-67
2023/03/20 09:04:45;;;;;;;1.70;1.60;;;;;;;;;;5034275;28;20422;-66
2023/03/20 09:07:11;;;;;;;2.97;1.80;;;;;;;;;;5034338;28;20537;-68
2023/03/20 09:09:37;;;;;;;2.70;2.60;;;;;;;;;;5039547;28;20434;-67
2023/03/20 09:12:03;;;;;;;2.87;1.80;;;;;;;;;;5038919;28;20474;-67
2023/03/20 09:14:29;;;;;;;2.17;2.07;;;;;;;;;;5036315;28;20423;-68
2023/03/20 09:16:55;;;;;;;1.80;1.80;;;;;;;;;;5038208;28;20490;-71
2023/03/20 09:19:21;;;;;;;4.87;2.07;;;;;;;;;;5038385;28;20847;-70
2023/03/20 09:21:47;;;;;;;1.97;1.87;;;;;;;;;;5038691;28;20956;-68
2023/03/20 09:24:13;;;;;;;1.73;1.73;;;;;;;;;;5039045;28;20484;-68
2023/03/20 09:26:39;;;;;;;2.00;2.00;;;;;;;;;;5038943;28;20428;-68
2023/03/20 09:29:05;;;;;;;3.90;3.67;;;;;;;;;;5037409;28;20445;-68
2023/03/20 09:31:33;;;;;;;2.70;2.20;;;;;;;;;;5038406;28;20459;-68
2023/03/20 09:33:59;;;;;;;2.70;2.60;;;;;;;;;;5037347;28;20504;-68
2023/03/20 09:36:25;;;;;;;2.23;2.17;;;;;;;;;;5037637;28;20479;-69
2023/03/20 09:38:51;;;;;;;2.70;2.60;;;;;;;;;;5038409;28;20451;-68
2023/03/20 09:41:20;;;;;;;3.33;2.77;;;;;;;;;;5039427;28;20952;-67
2023/03/20 09:43:55;;;;;;;2.13;2.13;;;;;;;;;;5039312;28;20965;-67
2023/03/20 09:46:27;;;;;;;2.50;2.40;;;;;;;;;;5038998;28;21074;-67
2023/03/20 09:48:53;;;;;;;2.37;2.30;;;;;;;;;;5037086;28;20939;-66
2023/03/20 09:51:24;;;;;;;2.20;2.10;;;;;;;;;;5031161;28;20465;-67
2023/03/20 09:53:53;;;;;;;2.33;2.20;;;;;;;;;;5034268;28;20970;-68
2023/03/20 09:56:24;;;;;;;2.60;2.40;;;;;;;;;;5030184;28;20488;-67
2023/03/20 09:58:57;;;;;;;1.93;1.93;;;;;;;;;;5029665;28;20434;-67
2023/03/20 10:01:25;;;;;;;1.57;1.57;;;;;;;;;;5030447;28;20447;-67
2023/03/20 10:04:00;;;;;;;1.40;1.40;;;;;;;;;;5029263;28;20434;-66
2023/03/20 10:06:26;;;;;;;1.83;1.50;;;;;;;;;;5030088;28;20933;-68
2023/03/20 10:08:54;;;;;;;1.40;1.40;;;;;;;;;;5029540;28;20451;-67
2023/03/20 10:11:32;;;;;;;1.17;1.13;;;;;;;;;;5028974;28;20439;-67
2023/03/20 10:14:18;;;;;;;2.13;1.70;;;;;;;;;;5029814;28;20447;-67
2023/03/20 10:17:02;;;;;;;1.17;1.17;;;;;;;;;;5028692;28;20532;-70
2023/03/20 10:19:33;;;;;;;1.77;1.67;;;;;;;;;;5029011;28;20443;-67
2023/03/20 10:22:02;;;;;;;1.63;1.60;;;;;;;;;;5030527;28;20435;-68
2023/03/20 10:24:30;;;;;;;1.60;1.60;;;;;;;;;;5029935;28;20414;-67
2023/03/20 10:26:59;;;;;;;1.20;1.10;;;;;;;;;;5029231;28;20434;-70
2023/03/20 10:29:41;;;;;;;1.90;1.40;;;;;;;;;;5029328;28;20427;-67
2023/03/20 10:32:23;;;;;;;2.20;1.23;;;;;;;;;;5028012;28;20584;-67
2023/03/20 10:34:58;;;;;;;0.70;0.70;;;;;;;;;;5027223;28;20455;-72
2023/03/20 10:37:27;;;;;;;0.80;0.80;;;;;;;;;;5028267;28;20561;-67
2023/03/20 10:39:56;;;;;;;1.60;1.20;;;;;;;;;;5029625;28;20449;-68
2023/03/20 10:42:35;;;;;;;0.80;0.80;;;;;;;;;;5029288;28;20419;-68
2023/03/20 10:45:14;;;;;;;2.93;1.10;;;;;;;;;;5029538;28;20418;-67
2023/03/20 10:47:42;;;;;;;1.03;1.03;;;;;;;;;;5028238;28;20443;-69
2023/03/20 10:50:15;;;;;;;1.40;1.30;;;;;;;;;;5032533;28;20538;-67
2023/03/20 10:52:41;;;;;;;1.10;1.10;;;;;;;;;;5037357;28;20438;-67
2023/03/20 10:55:11;;;;;;;2.10;1.57;;;;;;;;;;5036540;28;20421;-67
2023/03/20 10:57:40;;;;;;;1.07;1.07;;;;;;;;;;5032986;28;20521;-68
2023/03/20 11:00:11;;;;;;;1.63;1.63;;;;;;;;;;5034122;28;20828;-69
2023/03/20 11:02:37;;;;;;;2.53;2.43;;;;;;;;;;5036381;28;20429;-72
2023/03/20 11:05:18;;;;;;;0.80;0.80;;;;;;;;;;5034150;28;20434;-75
2023/03/20 11:07:46;;;;;;;1.00;1.00;;;;;;;;;;5030922;28;20871;-70
2023/03/20 11:10:15;;;;;;;1.10;1.00;;;;;;;;;;5028598;28;20428;-75
2023/03/20 11:12:48;;;;;;;0.83;0.83;;;;;;;;;;5028416;28;20514;-70
2023/03/20 11:15:19;;;;;;;0.70;0.70;;;;;;;;;;5030444;28;20550;-70
2023/03/20 11:17:57;;;;;;;11.27;6.43;;;;;;;;;;5036792;28;20483;-70
2023/03/20 11:20:24;;;;;;;4.87;4.40;;;;;;;;;;5035415;28;20449;-71
2023/03/20 11:22:51;;;;;;;0.60;0.60;;;;;;;;;;5036150;28;20997;-72
2023/03/20 11:25:24;;;;;;;0.60;0.60;;;;;;;;;;5035944;28;20510;-71
2023/03/20 11:27:50;;;;;;;1.20;1.20;;;;;;;;;;5036168;28;20988;-74
2023/03/20 11:30:17;;;;;;;0.97;0.97;;;;;;;;;;5034522;28;20430;-70
2023/03/20 11:32:48;;;;;;;46.87;33.70;;;;;;;;;;5019327;28;20480;-74
2023/03/20 11:35:31;;;;;;;0.73;0.73;;;;;;;;;;5035839;28;20419;-70
2023/03/20 11:38:08;;;;;;;1.73;1.73;;;;;;;;;;5036352;28;20954;-72
2023/03/20 11:40:34;;;;;;;1.00;1.00;;;;;;;;;;5033187;28;20430;-70
2023/03/20 11:43:00;;;;;;;1.50;1.50;;;;;;;;;;5034596;28;20594;-70
2023/03/20 11:45:27;;;;;;;0.80;0.80;;;;;;;;;;5034792;28;21918;-69
2023/03/20 11:47:56;;;;;;;14.77;8.60;;;;;;;;;;5034358;28;20196;-70
2023/03/20 11:50:30;;;;;;;1.77;1.77;;;;;;;;;;5036115;28;20497;-71
2023/03/20 11:52:56;;;;;;;37.90;20.47;;;;;;;;;;5034012;28;20431;-71
2023/03/20 11:55:24;;;;;;;30.23;18.60;;;;;;;;;;5032711;28;20484;-71
2023/03/20 11:57:50;;;;;;;7.43;4.77;;;;;;;;;;5034404;28;20918;-71
2023/03/20 12:00:19;;;;;;;16.10;10.60;;;;;;;;;;5034177;28;20419;-70
2023/03/20 12:02:45;;;;;;;3.10;2.90;;;;;;;;;;5035265;28;20451;-70
2023/03/20 12:05:19;;;;;;;7.13;6.50;;;;;;;;;;5034766;28;20504;-66
2023/03/20 12:07:48;;;;;;;15.00;10.60;;;;;;;;;;5035299;28;20488;-67
2023/03/20 12:10:14;;;;;;;10.17;8.63;;;;;;;;;;5035335;28;20435;-69
2023/03/20 12:12:47;;;;;;;8.27;7.57;;;;;;;;;;5034623;28;20838;-71
2023/03/20 12:15:17;;;;;;;4.37;4.03;;;;;;;;;;5035479;28;20427;-71
2023/03/20 12:17:44;;;;;;;13.50;7.40;;;;;;;;;;5035788;28;20566;-71
2023/03/20 12:20:22;;;;;;;2.00;2.00;;;;;;;;;;5034585;28;20434;-68
2023/03/20 12:22:53;;;;;;;1.33;1.33;;;;;;;;;;5034834;28;20461;-70
2023/03/20 12:25:24;;;;;;;1.00;1.00;;;;;;;;;;5035137;28;20517;-70
2023/03/20 12:27:55;;;;;;;1.60;0.60;;;;;;;;;;5035961;28;20588;-70
2023/03/20 12:30:40;;;;;;;0.60;0.60;;;;;;;;;;5032533;28;20439;-70
2023/03/20 12:33:22;;;;;;;4.17;3.80;;;;;;;;;;5034626;28;20497;-70
2023/03/20 12:35:50;;;;;;;3.53;3.23;;;;;;;;;;5035323;28;20432;-70
2023/03/20 12:38:26;;;;;;;0.67;0.67;;;;;;;;;;5035147;28;20514;-70
2023/03/20 12:40:54;;;;;;;1.03;1.03;;;;;;;;;;5031263;28;20976;-70
2023/03/20 12:43:28;;;;;;;2.73;0.70;;;;;;;;;;5034211;28;20430;-69
2023/03/20 12:46:08;;;;;;;0.80;0.80;;;;;;;;;;5034403;28;20561;-70
2023/03/20 12:48:34;;;;;;;0.87;0.87;;;;;;;;;;5034480;28;20785;-70
2023/03/20 12:51:10;;;;;;;0.50;0.50;;;;;;;;;;5032749;28;21223;-71
2023/03/20 12:53:50;;;;;;;0.60;0.60;;;;;;;;;;5031763;28;20671;-71
2023/03/20 12:56:19;;;;;;;2.90;0.80;;;;;;;;;;5032425;28;21419;-71
2023/03/20 12:58:57;;;;;;;0.40;0.40;;;;;;;;;;5034966;28;20427;-71
2023/03/20 13:01:35;;;;;;;1.90;1.00;;;;;;;;;;5034213;28;20458;-71
2023/03/20 13:04:19;;;;;;;0.70;0.70;;;;;;;;;;5033811;28;20522;-71
2023/03/20 13:06:51;;;;;;;1.47;0.80;;;;;;;;;;5035016;28;20450;-71
2023/03/20 13:09:25;;;;;;;0.60;0.60;;;;;;;;;;5035014;28;20439;-71
2023/03/20 13:12:11;;;;;;;3.10;1.23;;;;;;;;;;5027257;28;20473;-71
2023/03/20 13:14:55;;;;;;;0.73;0.73;;;;;;;;;;5026380;28;20514;-71
2023/03/20 13:17:21;;;;;;;1.47;1.47;;;;;;;;;;5029105;28;20505;-72
2023/03/20 13:20:06;;;;;;;0.83;0.83;;;;;;;;;;5027058;28;20781;-71
2023/03/20 13:22:36;;;;;;;1.70;1.60;;;;;;;;;;5026206;28;20489;-71
2023/03/20 13:25:14;;;;;;;2.10;2.10;;;;;;;;;;5024133;28;20516;-71
2023/03/20 13:27:48;;;;;;;4.33;2.00;;;;;;;;;;5026137;28;20533;-71
2023/03/20 13:30:33;;;;;;;1.57;0.97;;;;;;;;;;5025417;28;20477;-68
2023/03/20 13:33:08;;;;;;;0.80;0.80;;;;;;;;;;5025854;28;20478;-68
2023/03/20 13:35:34;;;;;;;2.60;2.40;;;;;;;;;;5025737;28;20501;-69
2023/03/20 13:38:02;;;;;;;2.27;2.17;;;;;;;;;;5026284;28;20552;-69
2023/03/20 13:40:29;;;;;;;0.40;0.40;;;;;;;;;;5026592;28;20977;-68
2023/03/20 13:43:16;;;;;;;0.50;0.50;;;;;;;;;;5026326;28;20935;-68
2023/03/20 13:45:42;;;;;;;0.57;0.57;;;;;;;;;;5026738;28;20470;-69
2023/03/20 13:48:24;;;;;;;0.97;0.97;;;;;;;;;;5026004;28;20478;-67
2023/03/20 13:51:08;;;;;;;0.70;0.70;;;;;;;;;;5026285;28;20422;-68
2023/03/20 13:53:53;;;;;;;1.10;1.10;;;;;;;;;;5028328;28;20573;-69
2023/03/20 13:56:39;;;;;;;1.13;1.13;;;;;;;;;;5031214;28;20477;-68
2023/03/20 13:59:24;;;;;;;1.23;1.23;;;;;;;;;;5030087;28;20438;-68
2023/03/20 14:01:56;;;;;;;4.90;1.03;;;;;;;;;;5028622;28;20419;-69
2023/03/20 14:04:23;;;;;;;0.90;0.90;;;;;;;;;;5028854;28;20438;-69
2023/03/20 14:06:53;;;;;;;2.43;1.30;;;;;;;;;;5031299;28;20513;-68
2023/03/20 14:09:30;;;;;;;0.50;0.50;;;;;;;;;;5029547;28;20447;-69
2023/03/20 14:12:00;;;;;;;3.63;1.90;;;;;;;;;;5029198;28;20489;-68
2023/03/20 14:14:27;;;;;;;4.23;3.90;;;;;;;;;;5027226;28;20455;-69
2023/03/20 14:17:00;;;;;;;2.80;2.70;;;;;;;;;;5034777;28;20606;-68
2023/03/20 14:19:26;;;;;;;1.37;0.73;;;;;;;;;;5029698;28;20423;-69
2023/03/20 14:21:53;;;;;;;0.80;0.80;;;;;;;;;;5029566;28;20441;-68
2023/03/20 14:24:20;;;;;;;0.97;0.97;;;;;;;;;;5029505;28;20577;-68
2023/03/20 14:26:50;;;;;;;0.73;0.67;;;;;;;;;;5029766;28;20933;-69
2023/03/20 14:29:16;;;;;;;0.97;0.97;;;;;;;;;;5034518;28;20441;-69
2023/03/20 14:31:44;;;;;;;0.97;0.97;;;;;;;;;;5037127;28;20435;-68
2023/03/20 14:34:12;;;;;;;1.93;1.83;;;;;;;;;;5037084;28;20886;-68
2023/03/20 14:36:59;;;;;;;1.50;1.10;;;;;;;;;;5032073;28;20473;-69
2023/03/20 14:39:33;;;;;;;1.13;1.13;;;;;;;;;;5031256;28;20435;-66
2023/03/20 14:42:05;;;;;;;5.13;4.83;;;;;;;;;;5030468;28;20461;-69
2023/03/20 14:44:46;;;;;;;1.60;1.60;;;;;;;;;;5033156;28;20423;-68
2023/03/20 14:47:31;;;;;;;2.70;2.60;;;;;;;;;;5037408;28;20985;-69
2023/03/20 14:50:03;;;;;;;2.47;2.27;;;;;;;;;;5035583;28;20431;-68
2023/03/20 14:52:35;;;;;;;0.90;0.90;;;;;;;;;;5035881;28;20811;-69
2023/03/20 14:55:26;;;;;;;0.80;0.80;;;;;;;;;;5032020;28;20454;-68
2023/03/20 14:57:53;;;;;;;0.60;0.60;;;;;;;;;;5029289;28;20545;-69